sensor_id;sensor_type;location;lat;lon;timestamp;temperature;humidity
73137;DHT22;67767;45.636;11.756;2023-04-03T00:01:32;14.10;77.10
73137;DHT22;67767;45.636;11.756;2023-04-03T00:03:58;14.00;77.20
73137;DHT22;67767;45.636;11.756;2023-04-03T00:06:24;13.90;77.90
73137;DHT22;67767;45.636;11.756;2023-04-03T00:08:51;13.90;77.80
73137;DHT22;67767;45.636;11.756;2023-04-03T00:11:17;14.00;77.50
73137;DHT22;67767;45.636;11.756;2023-04-03T00:13:43;13.90;77.20
73137;DHT22;67767;45.636;11.756;2023-04-03T00:16:09;14.00;77.00
73137;DHT22;67767;45.636;11.756;2023-04-03T00:18:38;14.10;77.10
73137;DHT22;67767;45.636;11.756;2023-04-03T00:21:05;14.00;77.10
73137;DHT22;67767;45.636;11.756;2023-04-03T00:23:31;14.00;77.20
73137;DHT22;67767;45.636;11.756;2023-04-03T00:25:57;14.00;76.90
73137;DHT22;67767;45.636;11.756;2023-04-03T00:28:23;14.00;77.00
73137;DHT22;67767;45.636;11.756;2023-04-03T00:30:49;13.90;76.90
73137;DHT22;67767;45.636;11.756;2023-04-03T00:33:16;13.80;76.90
73137;DHT22;67767;45.636;11.756;2023-04-03T00:35:42;13.70;77.00
73137;DHT22;67767;45.636;11.756;2023-04-03T00:38:08;13.70;76.70
73137;DHT22;67767;45.636;11.756;2023-04-03T00:40:37;13.60;76.50
73137;DHT22;67767;45.636;11.756;2023-04-03T00:43:10;13.50;76.40
73137;DHT22;67767;45.636;11.756;2023-04-03T00:45:44;13.60;76.40
73137;DHT22;67767;45.636;11.756;2023-04-03T00:48:13;13.50;76.20
73137;DHT22;67767;45.636;11.756;2023-04-03T00:50:41;13.50;76.30
73137;DHT22;67767;45.636;11.756;2023-04-03T00:53:17;13.50;76.00
73137;DHT22;67767;45.636;11.756;2023-04-03T00:55:44;13.40;76.30
73137;DHT22;67767;45.636;11.756;2023-04-03T00:58:12;13.50;76.20
73137;DHT22;67767;45.636;11.756;2023-04-03T01:00:43;13.40;76.30
73137;DHT22;67767;45.636;11.756;2023-04-03T01:03:11;13.50;76.20
73137;DHT22;67767;45.636;11.756;2023-04-03T01:05:37;13.40;76.30
73137;DHT22;67767;45.636;11.756;2023-04-03T01:08:03;13.40;76.50
73137;DHT22;67767;45.636;11.756;2023-04-03T01:10:29;13.40;76.70
73137;DHT22;67767;45.636;11.756;2023-04-03T01:12:55;13.40;76.60
73137;DHT22;67767;45.636;11.756;2023-04-03T01:15:24;13.50;76.70
73137;DHT22;67767;45.636;11.756;2023-04-03T01:17:58;13.40;76.50
73137;DHT22;67767;45.636;11.756;2023-04-03T01:28:07;13.30;76.30
73137;DHT22;67767;45.636;11.756;2023-04-03T01:30:45;13.30;76.00
73137;DHT22;67767;45.636;11.756;2023-04-03T01:33:12;13.30;76.10
73137;DHT22;67767;45.636;11.756;2023-04-03T01:35:38;13.30;76.00
73137;DHT22;67767;45.636;11.756;2023-04-03T01:38:04;13.30;75.70
73137;DHT22;67767;45.636;11.756;2023-04-03T01:40:29;13.20;75.60
73137;DHT22;67767;45.636;11.756;2023-04-03T01:42:55;13.10;75.70
73137;DHT22;67767;45.636;11.756;2023-04-03T01:45:21;13.20;75.60
73137;DHT22;67767;45.636;11.756;2023-04-03T01:47:46;13.00;75.50
73137;DHT22;67767;45.636;11.756;2023-04-03T01:50:12;13.20;75.20
73137;DHT22;67767;45.636;11.756;2023-04-03T01:52:38;13.10;75.20
73137;DHT22;67767;45.636;11.756;2023-04-03T01:55:04;13.10;75.20
73137;DHT22;67767;45.636;11.756;2023-04-03T01:57:29;13.10;75.30
73137;DHT22;67767;45.636;11.756;2023-04-03T01:59:55;13.10;75.20
73137;DHT22;67767;45.636;11.756;2023-04-03T02:02:21;13.00;75.20
73137;DHT22;67767;45.636;11.756;2023-04-03T02:04:47;12.90;75.50
73137;DHT22;67767;45.636;11.756;2023-04-03T02:07:12;12.90;75.40
73137;DHT22;67767;45.636;11.756;2023-04-03T02:09:38;12.70;75.70
73137;DHT22;67767;45.636;11.756;2023-04-03T02:12:04;12.70;75.70
73137;DHT22;67767;45.636;11.756;2023-04-03T02:14:29;12.70;76.70
73137;DHT22;67767;45.636;11.756;2023-04-03T02:16:55;12.70;76.90
73137;DHT22;67767;45.636;11.756;2023-04-03T02:19:21;12.60;77.20
73137;DHT22;67767;45.636;11.756;2023-04-03T02:21:46;12.50;77.20
73137;DHT22;67767;45.636;11.756;2023-04-03T02:24:12;12.60;77.00
73137;DHT22;67767;45.636;11.756;2023-04-03T02:26:38;12.60;76.90
73137;DHT22;67767;45.636;11.756;2023-04-03T02:29:03;12.50;77.10
73137;DHT22;67767;45.636;11.756;2023-04-03T02:31:29;12.40;77.00
73137;DHT22;67767;45.636;11.756;2023-04-03T02:33:55;12.50;77.00
73137;DHT22;67767;45.636;11.756;2023-04-03T02:36:21;12.50;76.70
73137;DHT22;67767;45.636;11.756;2023-04-03T02:38:46;12.60;76.30
73137;DHT22;67767;45.636;11.756;2023-04-03T02:41:13;12.70;74.80
73137;DHT22;67767;45.636;11.756;2023-04-03T02:43:39;12.80;74.70
73137;DHT22;67767;45.636;11.756;2023-04-03T02:46:05;12.70;74.50
73137;DHT22;67767;45.636;11.756;2023-04-03T02:48:32;12.80;74.50
73137;DHT22;67767;45.636;11.756;2023-04-03T02:50:58;12.90;74.30
73137;DHT22;67767;45.636;11.756;2023-04-03T02:53:24;13.00;74.30
73137;DHT22;67767;45.636;11.756;2023-04-03T02:55:49;13.00;74.20
73137;DHT22;67767;45.636;11.756;2023-04-03T02:58:15;13.10;74.30
73137;DHT22;67767;45.636;11.756;2023-04-03T03:00:41;13.10;74.30
73137;DHT22;67767;45.636;11.756;2023-04-03T03:03:07;13.10;74.20
73137;DHT22;67767;45.636;11.756;2023-04-03T03:05:33;13.10;74.40
73137;DHT22;67767;45.636;11.756;2023-04-03T03:07:58;13.10;74.60
73137;DHT22;67767;45.636;11.756;2023-04-03T03:10:24;13.10;74.50
73137;DHT22;67767;45.636;11.756;2023-04-03T03:12:50;13.00;74.70
73137;DHT22;67767;45.636;11.756;2023-04-03T03:15:16;13.00;74.80
73137;DHT22;67767;45.636;11.756;2023-04-03T03:17:43;13.00;74.80
73137;DHT22;67767;45.636;11.756;2023-04-03T03:20:09;13.00;74.80
73137;DHT22;67767;45.636;11.756;2023-04-03T03:22:35;12.90;74.80
73137;DHT22;67767;45.636;11.756;2023-04-03T03:25:01;12.90;74.70
73137;DHT22;67767;45.636;11.756;2023-04-03T03:27:28;12.80;75.00
73137;DHT22;67767;45.636;11.756;2023-04-03T03:29:53;12.70;76.40
73137;DHT22;67767;45.636;11.756;2023-04-03T03:32:19;12.60;76.70
73137;DHT22;67767;45.636;11.756;2023-04-03T03:34:45;12.50;76.70
73137;DHT22;67767;45.636;11.756;2023-04-03T03:37:10;12.40;76.80
73137;DHT22;67767;45.636;11.756;2023-04-03T03:39:36;12.30;76.40
73137;DHT22;67767;45.636;11.756;2023-04-03T03:42:02;12.30;76.40
73137;DHT22;67767;45.636;11.756;2023-04-03T03:44:27;12.10;76.40
73137;DHT22;67767;45.636;11.756;2023-04-03T03:46:54;12.00;76.40
73137;DHT22;67767;45.636;11.756;2023-04-03T03:49:20;12.00;76.40
73137;DHT22;67767;45.636;11.756;2023-04-03T03:51:46;11.80;76.40
73137;DHT22;67767;45.636;11.756;2023-04-03T03:54:12;11.90;76.30
73137;DHT22;67767;45.636;11.756;2023-04-03T03:56:38;11.90;76.60
73137;DHT22;67767;45.636;11.756;2023-04-03T03:59:05;11.90;76.50
73137;DHT22;67767;45.636;11.756;2023-04-03T04:01:31;11.90;76.40
73137;DHT22;67767;45.636;11.756;2023-04-03T04:03:57;11.90;76.70
73137;DHT22;67767;45.636;11.756;2023-04-03T04:06:22;12.00;76.80
73137;DHT22;67767;45.636;11.756;2023-04-03T04:08:48;12.00;77.30
73137;DHT22;67767;45.636;11.756;2023-04-03T04:11:14;12.00;77.40
73137;DHT22;67767;45.636;11.756;2023-04-03T04:13:39;12.10;77.20
73137;DHT22;67767;45.636;11.756;2023-04-03T04:16:06;12.10;77.40
73137;DHT22;67767;45.636;11.756;2023-04-03T04:18:32;12.10;77.30
73137;DHT22;67767;45.636;11.756;2023-04-03T04:20:58;12.10;77.50
73137;DHT22;67767;45.636;11.756;2023-04-03T04:23:24;12.10;77.70
73137;DHT22;67767;45.636;11.756;2023-04-03T04:25:51;12.10;78.20
73137;DHT22;67767;45.636;11.756;2023-04-03T04:28:17;12.20;77.90
73137;DHT22;67767;45.636;11.756;2023-04-03T04:30:43;12.10;78.20
73137;DHT22;67767;45.636;11.756;2023-04-03T04:33:09;12.10;78.30
73137;DHT22;67767;45.636;11.756;2023-04-03T04:35:35;12.10;78.40
73137;DHT22;67767;45.636;11.756;2023-04-03T04:38:01;12.10;78.50
73137;DHT22;67767;45.636;11.756;2023-04-03T04:40:27;12.00;78.30
73137;DHT22;67767;45.636;11.756;2023-04-03T04:42:52;12.10;78.50
73137;DHT22;67767;45.636;11.756;2023-04-03T04:45:18;12.00;78.80
73137;DHT22;67767;45.636;11.756;2023-04-03T04:47:44;12.10;78.90
73137;DHT22;67767;45.636;11.756;2023-04-03T04:50:10;12.00;78.90
73137;DHT22;67767;45.636;11.756;2023-04-03T04:52:37;11.90;79.20
73137;DHT22;67767;45.636;11.756;2023-04-03T04:55:03;12.00;79.10
73137;DHT22;67767;45.636;11.756;2023-04-03T04:57:29;11.90;79.60
73137;DHT22;67767;45.636;11.756;2023-04-03T04:59:55;11.90;79.60
73137;DHT22;67767;45.636;11.756;2023-04-03T05:02:20;11.90;79.60
73137;DHT22;67767;45.636;11.756;2023-04-03T05:04:46;12.00;79.70
73137;DHT22;67767;45.636;11.756;2023-04-03T05:07:12;11.90;79.60
73137;DHT22;67767;45.636;11.756;2023-04-03T05:09:37;12.00;79.70
73137;DHT22;67767;45.636;11.756;2023-04-03T05:12:04;12.10;79.30
73137;DHT22;67767;45.636;11.756;2023-04-03T05:14:30;12.10;79.20
73137;DHT22;67767;45.636;11.756;2023-04-03T05:16:55;12.20;79.10
73137;DHT22;67767;45.636;11.756;2023-04-03T05:19:21;12.10;79.10
73137;DHT22;67767;45.636;11.756;2023-04-03T05:21:47;12.10;79.40
73137;DHT22;67767;45.636;11.756;2023-04-03T05:24:14;12.20;79.50
73137;DHT22;67767;45.636;11.756;2023-04-03T05:26:41;12.20;79.60
73137;DHT22;67767;45.636;11.756;2023-04-03T05:29:08;12.20;79.30
73137;DHT22;67767;45.636;11.756;2023-04-03T05:31:34;12.30;79.20
73137;DHT22;67767;45.636;11.756;2023-04-03T05:34:00;12.40;79.30
73137;DHT22;67767;45.636;11.756;2023-04-03T05:36:25;12.50;79.10
73137;DHT22;67767;45.636;11.756;2023-04-03T05:38:51;12.60;78.90
73137;DHT22;67767;45.636;11.756;2023-04-03T05:41:17;12.90;77.40
73137;DHT22;67767;45.636;11.756;2023-04-03T05:43:43;13.10;76.70
73137;DHT22;67767;45.636;11.756;2023-04-03T05:46:13;13.20;76.40
73137;DHT22;67767;45.636;11.756;2023-04-03T05:48:39;13.30;76.40
73137;DHT22;67767;45.636;11.756;2023-04-03T05:51:06;13.40;76.60
73137;DHT22;67767;45.636;11.756;2023-04-03T05:53:35;13.30;76.60
73137;DHT22;67767;45.636;11.756;2023-04-03T05:56:03;13.30;76.60
73137;DHT22;67767;45.636;11.756;2023-04-03T05:58:28;13.30;76.80
73137;DHT22;67767;45.636;11.756;2023-04-03T06:00:54;13.30;76.80
73137;DHT22;67767;45.636;11.756;2023-04-03T06:03:20;13.30;76.30
73137;DHT22;67767;45.636;11.756;2023-04-03T06:05:46;13.40;76.00
73137;DHT22;67767;45.636;11.756;2023-04-03T06:08:11;13.30;75.60
73137;DHT22;67767;45.636;11.756;2023-04-03T06:10:38;13.40;75.20
73137;DHT22;67767;45.636;11.756;2023-04-03T06:13:04;13.50;75.20
73137;DHT22;67767;45.636;11.756;2023-04-03T06:15:29;13.50;74.70
73137;DHT22;67767;45.636;11.756;2023-04-03T06:17:55;13.50;74.70
73137;DHT22;67767;45.636;11.756;2023-04-03T06:20:21;13.40;74.50
73137;DHT22;67767;45.636;11.756;2023-04-03T06:22:47;13.60;74.40
73137;DHT22;67767;45.636;11.756;2023-04-03T06:25:13;13.80;74.40
73137;DHT22;67767;45.636;11.756;2023-04-03T06:27:40;13.90;73.80
73137;DHT22;67767;45.636;11.756;2023-04-03T06:30:06;14.00;73.10
73137;DHT22;67767;45.636;11.756;2023-04-03T06:32:32;13.90;73.20
73137;DHT22;67767;45.636;11.756;2023-04-03T06:34:58;13.90;73.00
73137;DHT22;67767;45.636;11.756;2023-04-03T06:37:24;13.90;72.90
73137;DHT22;67767;45.636;11.756;2023-04-03T06:39:54;13.90;72.80
73137;DHT22;67767;45.636;11.756;2023-04-03T06:42:20;14.00;73.00
73137;DHT22;67767;45.636;11.756;2023-04-03T06:44:46;14.10;73.50
73137;DHT22;67767;45.636;11.756;2023-04-03T06:47:16;14.20;73.10
73137;DHT22;67767;45.636;11.756;2023-04-03T06:49:43;14.30;72.80
73137;DHT22;67767;45.636;11.756;2023-04-03T06:52:09;14.70;72.70
73137;DHT22;67767;45.636;11.756;2023-04-03T06:54:35;14.90;72.50
73137;DHT22;67767;45.636;11.756;2023-04-03T06:57:01;14.70;72.40
73137;DHT22;67767;45.636;11.756;2023-04-03T06:59:27;14.60;72.90
73137;DHT22;67767;45.636;11.756;2023-04-03T07:01:53;14.60;72.80
73137;DHT22;67767;45.636;11.756;2023-04-03T07:04:18;14.50;72.60
73137;DHT22;67767;45.636;11.756;2023-04-03T07:06:46;14.20;73.30
73137;DHT22;67767;45.636;11.756;2023-04-03T07:09:13;14.30;73.10
73137;DHT22;67767;45.636;11.756;2023-04-03T07:11:39;14.20;73.10
73137;DHT22;67767;45.636;11.756;2023-04-03T07:14:05;14.10;73.60
73137;DHT22;67767;45.636;11.756;2023-04-03T07:16:33;14.00;73.70
73137;DHT22;67767;45.636;11.756;2023-04-03T07:18:59;14.10;74.00
73137;DHT22;67767;45.636;11.756;2023-04-03T07:21:24;14.00;73.90
73137;DHT22;67767;45.636;11.756;2023-04-03T07:23:51;14.10;74.30
73137;DHT22;67767;45.636;11.756;2023-04-03T07:26:16;14.10;73.80
73137;DHT22;67767;45.636;11.756;2023-04-03T07:28:42;14.00;74.20
73137;DHT22;67767;45.636;11.756;2023-04-03T07:31:12;14.00;74.40
73137;DHT22;67767;45.636;11.756;2023-04-03T07:33:39;14.10;74.30
73137;DHT22;67767;45.636;11.756;2023-04-03T07:36:06;14.20;74.30
73137;DHT22;67767;45.636;11.756;2023-04-03T07:38:33;14.30;74.00
73137;DHT22;67767;45.636;11.756;2023-04-03T07:40:59;14.40;73.00
73137;DHT22;67767;45.636;11.756;2023-04-03T07:43:25;14.40;72.70
73137;DHT22;67767;45.636;11.756;2023-04-03T07:45:51;14.40;72.60
73137;DHT22;67767;45.636;11.756;2023-04-03T07:48:19;14.40;73.00
73137;DHT22;67767;45.636;11.756;2023-04-03T07:50:45;14.50;72.60
73137;DHT22;67767;45.636;11.756;2023-04-03T07:53:10;14.40;72.10
73137;DHT22;67767;45.636;11.756;2023-04-03T07:55:37;14.20;72.00
73137;DHT22;67767;45.636;11.756;2023-04-03T07:58:12;14.30;71.90
73137;DHT22;67767;45.636;11.756;2023-04-03T08:00:39;14.50;72.10
73137;DHT22;67767;45.636;11.756;2023-04-03T08:03:05;14.70;71.70
73137;DHT22;67767;45.636;11.756;2023-04-03T08:05:31;14.60;71.50
73137;DHT22;67767;45.636;11.756;2023-04-03T08:07:57;14.70;71.20
73137;DHT22;67767;45.636;11.756;2023-04-03T08:10:23;14.70;71.30
73137;DHT22;67767;45.636;11.756;2023-04-03T08:12:48;14.80;71.30
73137;DHT22;67767;45.636;11.756;2023-04-03T08:15:14;14.90;71.20
73137;DHT22;67767;45.636;11.756;2023-04-03T08:17:40;15.00;70.80
73137;DHT22;67767;45.636;11.756;2023-04-03T08:20:07;14.90;70.50
73137;DHT22;67767;45.636;11.756;2023-04-03T08:22:33;15.10;71.00
73137;DHT22;67767;45.636;11.756;2023-04-03T08:25:00;15.30;70.30
73137;DHT22;67767;45.636;11.756;2023-04-03T08:27:27;15.40;64.70
73137;DHT22;67767;45.636;11.756;2023-04-03T08:29:54;15.70;63.90
73137;DHT22;67767;45.636;11.756;2023-04-03T08:32:20;15.80;63.10
73137;DHT22;67767;45.636;11.756;2023-04-03T08:34:45;15.80;62.10
73137;DHT22;67767;45.636;11.756;2023-04-03T08:37:13;15.90;61.60
73137;DHT22;67767;45.636;11.756;2023-04-03T08:39:39;16.20;60.60
73137;DHT22;67767;45.636;11.756;2023-04-03T08:42:52;16.30;59.20
73137;DHT22;67767;45.636;11.756;2023-04-03T08:50:43;16.00;60.50
73137;DHT22;67767;45.636;11.756;2023-04-03T08:53:14;16.20;59.30
73137;DHT22;67767;45.636;11.756;2023-04-03T08:55:46;16.20;58.00
73137;DHT22;67767;45.636;11.756;2023-04-03T08:58:19;16.30;58.80
73137;DHT22;67767;45.636;11.756;2023-04-03T09:03:15;16.50;55.30
73137;DHT22;67767;45.636;11.756;2023-04-03T09:08:30;17.00;54.40
73137;DHT22;67767;45.636;11.756;2023-04-03T09:13:59;16.90;55.90
73137;DHT22;67767;45.636;11.756;2023-04-03T09:19:09;16.60;56.00
73137;DHT22;67767;45.636;11.756;2023-04-03T09:21:41;16.50;55.10
73137;DHT22;67767;45.636;11.756;2023-04-03T09:24:10;16.90;55.10
73137;DHT22;67767;45.636;11.756;2023-04-03T09:26:43;16.80;55.80
73137;DHT22;67767;45.636;11.756;2023-04-03T09:29:17;16.60;55.60
73137;DHT22;67767;45.636;11.756;2023-04-03T09:31:46;16.40;54.40
73137;DHT22;67767;45.636;11.756;2023-04-03T09:34:26;16.50;54.70
73137;DHT22;67767;45.636;11.756;2023-04-03T09:36:56;16.50;53.80
73137;DHT22;67767;45.636;11.756;2023-04-03T09:39:28;16.70;54.30
73137;DHT22;67767;45.636;11.756;2023-04-03T09:42:21;17.10;53.30
73137;DHT22;67767;45.636;11.756;2023-04-03T09:44:56;17.40;52.10
73137;DHT22;67767;45.636;11.756;2023-04-03T09:47:28;17.50;51.70
73137;DHT22;67767;45.636;11.756;2023-04-03T09:52:49;17.50;54.00
73137;DHT22;67767;45.636;11.756;2023-04-03T09:55:21;17.30;53.70
73137;DHT22;67767;45.636;11.756;2023-04-03T09:57:56;17.40;54.10
73137;DHT22;67767;45.636;11.756;2023-04-03T10:00:33;17.60;52.90
73137;DHT22;67767;45.636;11.756;2023-04-03T10:03:00;17.40;52.60
73137;DHT22;67767;45.636;11.756;2023-04-03T10:05:33;17.60;51.50
73137;DHT22;67767;45.636;11.756;2023-04-03T10:10:45;17.20;52.20
73137;DHT22;67767;45.636;11.756;2023-04-03T10:13:18;17.20;51.50
73137;DHT22;67767;45.636;11.756;2023-04-03T10:16:06;17.30;50.80
73137;DHT22;67767;45.636;11.756;2023-04-03T10:18:53;17.30;51.80
73137;DHT22;67767;45.636;11.756;2023-04-03T10:24:13;17.60;50.80
73137;DHT22;67767;45.636;11.756;2023-04-03T10:27:02;17.80;49.70
73137;DHT22;67767;45.636;11.756;2023-04-03T10:29:49;17.90;49.90
73137;DHT22;67767;45.636;11.756;2023-04-03T10:32:54;18.20;47.80
73137;DHT22;67767;45.636;11.756;2023-04-03T10:35:47;18.30;46.60
73137;DHT22;67767;45.636;11.756;2023-04-03T10:40:50;18.40;45.70
73137;DHT22;67767;45.636;11.756;2023-04-03T10:43:37;18.40;47.10
73137;DHT22;67767;45.636;11.756;2023-04-03T10:51:41;17.60;47.70
73137;DHT22;67767;45.636;11.756;2023-04-03T10:57:05;18.10;49.30
73137;DHT22;67767;45.636;11.756;2023-04-03T11:00:03;18.40;45.40
73137;DHT22;67767;45.636;11.756;2023-04-03T11:02:32;18.20;46.70
73137;DHT22;67767;45.636;11.756;2023-04-03T11:05:30;18.50;45.40
73137;DHT22;67767;45.636;11.756;2023-04-03T11:07:54;18.40;46.60
73137;DHT22;67767;45.636;11.756;2023-04-03T11:10:31;18.50;47.40
73137;DHT22;67767;45.636;11.756;2023-04-03T11:15:39;18.70;44.60
73137;DHT22;67767;45.636;11.756;2023-04-03T11:18:11;18.70;45.00
73137;DHT22;67767;45.636;11.756;2023-04-03T11:20:42;18.70;45.10
73137;DHT22;67767;45.636;11.756;2023-04-03T11:23:30;18.60;43.70
73137;DHT22;67767;45.636;11.756;2023-04-03T11:26:07;18.90;45.70
73137;DHT22;67767;45.636;11.756;2023-04-03T11:28:33;18.90;44.80
73137;DHT22;67767;45.636;11.756;2023-04-03T11:36:28;19.50;42.40
73137;DHT22;67767;45.636;11.756;2023-04-03T11:38:58;19.50;43.40
73137;DHT22;67767;45.636;11.756;2023-04-03T11:41:28;19.60;42.40
73137;DHT22;67767;45.636;11.756;2023-04-03T11:44:03;19.60;42.40
73137;DHT22;67767;45.636;11.756;2023-04-03T11:46:52;19.60;42.60
73137;DHT22;67767;45.636;11.756;2023-04-03T11:49:50;19.40;42.70
73137;DHT22;67767;45.636;11.756;2023-04-03T12:16:30;20.60;40.10
73137;DHT22;67767;45.636;11.756;2023-04-03T12:48:56;20.90;37.20
73137;DHT22;67767;45.636;11.756;2023-04-03T12:54:04;21.50;36.30
73137;DHT22;67767;45.636;11.756;2023-04-03T12:56:39;21.40;36.00
73137;DHT22;67767;45.636;11.756;2023-04-03T12:59:19;21.60;35.60
73137;DHT22;67767;45.636;11.756;2023-04-03T13:01:57;21.80;35.00
73137;DHT22;67767;45.636;11.756;2023-04-03T13:04:23;22.30;35.20
73137;DHT22;67767;45.636;11.756;2023-04-03T13:06:49;22.80;35.60
73137;DHT22;67767;45.636;11.756;2023-04-03T13:09:22;23.50;34.20
73137;DHT22;67767;45.636;11.756;2023-04-03T13:11:49;23.70;31.80
73137;DHT22;67767;45.636;11.756;2023-04-03T13:14:23;23.90;30.60
73137;DHT22;67767;45.636;11.756;2023-04-03T13:17:14;24.00;30.70
73137;DHT22;67767;45.636;11.756;2023-04-03T13:19:41;24.50;30.10
73137;DHT22;67767;45.636;11.756;2023-04-03T13:22:16;24.30;30.60
73137;DHT22;67767;45.636;11.756;2023-04-03T13:24:46;24.50;29.90
73137;DHT22;67767;45.636;11.756;2023-04-03T13:27:13;24.80;29.90
73137;DHT22;67767;45.636;11.756;2023-04-03T13:29:40;25.00;28.70
73137;DHT22;67767;45.636;11.756;2023-04-03T13:32:06;25.30;29.90
73137;DHT22;67767;45.636;11.756;2023-04-03T13:34:41;25.10;28.70
73137;DHT22;67767;45.636;11.756;2023-04-03T13:37:29;25.00;29.00
73137;DHT22;67767;45.636;11.756;2023-04-03T13:42:30;25.40;27.90
73137;DHT22;67767;45.636;11.756;2023-04-03T13:47:47;25.80;29.20
73137;DHT22;67767;45.636;11.756;2023-04-03T13:50:22;25.50;27.10
73137;DHT22;67767;45.636;11.756;2023-04-03T13:52:52;24.60;28.80
73137;DHT22;67767;45.636;11.756;2023-04-03T13:55:25;24.20;29.20
73137;DHT22;67767;45.636;11.756;2023-04-03T13:57:58;23.70;29.20
73137;DHT22;67767;45.636;11.756;2023-04-03T14:00:51;23.30;30.50
73137;DHT22;67767;45.636;11.756;2023-04-03T14:03:21;22.60;31.60
73137;DHT22;67767;45.636;11.756;2023-04-03T14:05:48;20.90;34.70
73137;DHT22;67767;45.636;11.756;2023-04-03T14:08:13;20.90;34.60
73137;DHT22;67767;45.636;11.756;2023-04-03T14:10:40;19.60;38.00
73137;DHT22;67767;45.636;11.756;2023-04-03T14:13:05;20.30;38.70
73137;DHT22;67767;45.636;11.756;2023-04-03T14:15:32;20.30;37.10
73137;DHT22;67767;45.636;11.756;2023-04-03T14:17:58;20.30;37.10
73137;DHT22;67767;45.636;11.756;2023-04-03T14:20:26;19.80;37.40
73137;DHT22;67767;45.636;11.756;2023-04-03T14:22:52;19.10;36.90
73137;DHT22;67767;45.636;11.756;2023-04-03T14:25:20;19.30;36.70
73137;DHT22;67767;45.636;11.756;2023-04-03T14:27:48;20.30;36.10
73137;DHT22;67767;45.636;11.756;2023-04-03T14:30:24;21.00;33.90
73137;DHT22;67767;45.636;11.756;2023-04-03T14:32:50;21.00;31.90
73137;DHT22;67767;45.636;11.756;2023-04-03T14:35:17;21.30;32.60
73137;DHT22;67767;45.636;11.756;2023-04-03T14:37:44;21.50;33.40
73137;DHT22;67767;45.636;11.756;2023-04-03T14:40:16;23.10;31.00
73137;DHT22;67767;45.636;11.756;2023-04-03T14:42:42;22.70;29.30
73137;DHT22;67767;45.636;11.756;2023-04-03T14:45:11;21.90;30.40
73137;DHT22;67767;45.636;11.756;2023-04-03T14:47:46;20.90;33.00
73137;DHT22;67767;45.636;11.756;2023-04-03T14:50:22;20.30;34.40
73137;DHT22;67767;45.636;11.756;2023-04-03T14:52:51;19.20;35.50
73137;DHT22;67767;45.636;11.756;2023-04-03T14:55:19;18.60;37.00
73137;DHT22;67767;45.636;11.756;2023-04-03T14:57:45;18.20;37.50
73137;DHT22;67767;45.636;11.756;2023-04-03T15:00:20;18.00;38.90
73137;DHT22;67767;45.636;11.756;2023-04-03T15:02:47;18.10;38.00
73137;DHT22;67767;45.636;11.756;2023-04-03T15:05:14;18.00;37.70
73137;DHT22;67767;45.636;11.756;2023-04-03T15:07:41;17.80;39.20
73137;DHT22;67767;45.636;11.756;2023-04-03T15:10:18;17.90;39.80
73137;DHT22;67767;45.636;11.756;2023-04-03T15:12:45;17.70;39.10
73137;DHT22;67767;45.636;11.756;2023-04-03T15:15:11;17.80;39.10
73137;DHT22;67767;45.636;11.756;2023-04-03T15:17:38;17.40;38.80
73137;DHT22;67767;45.636;11.756;2023-04-03T15:20:25;17.40;38.80
73137;DHT22;67767;45.636;11.756;2023-04-03T15:22:51;17.50;38.40
73137;DHT22;67767;45.636;11.756;2023-04-03T15:25:17;17.50;38.60
73137;DHT22;67767;45.636;11.756;2023-04-03T15:27:43;17.00;39.60
73137;DHT22;67767;45.636;11.756;2023-04-03T15:30:15;17.10;40.50
73137;DHT22;67767;45.636;11.756;2023-04-03T15:32:41;17.10;40.30
73137;DHT22;67767;45.636;11.756;2023-04-03T15:35:07;17.20;39.40
73137;DHT22;67767;45.636;11.756;2023-04-03T15:37:33;17.00;38.80
73137;DHT22;67767;45.636;11.756;2023-04-03T15:39:59;17.20;39.80
73137;DHT22;67767;45.636;11.756;2023-04-03T15:42:24;16.80;39.20
73137;DHT22;67767;45.636;11.756;2023-04-03T15:44:50;17.10;39.40
73137;DHT22;67767;45.636;11.756;2023-04-03T15:47:16;17.20;39.00
73137;DHT22;67767;45.636;11.756;2023-04-03T15:49:42;17.10;39.60
73137;DHT22;67767;45.636;11.756;2023-04-03T15:52:07;17.10;39.30
73137;DHT22;67767;45.636;11.756;2023-04-03T15:54:33;17.00;38.10
73137;DHT22;67767;45.636;11.756;2023-04-03T15:56:59;17.00;38.70
73137;DHT22;67767;45.636;11.756;2023-04-03T15:59:25;17.20;38.10
73137;DHT22;67767;45.636;11.756;2023-04-03T16:01:51;16.30;39.30
73137;DHT22;67767;45.636;11.756;2023-04-03T16:04:18;16.40;39.60
73137;DHT22;67767;45.636;11.756;2023-04-03T16:06:45;16.60;39.90
73137;DHT22;67767;45.636;11.756;2023-04-03T16:09:11;16.70;38.90
73137;DHT22;67767;45.636;11.756;2023-04-03T16:11:37;17.00;39.30
73137;DHT22;67767;45.636;11.756;2023-04-03T16:14:06;17.10;38.80
73137;DHT22;67767;45.636;11.756;2023-04-03T16:16:32;17.20;39.40
73137;DHT22;67767;45.636;11.756;2023-04-03T16:18:58;17.20;39.70
73137;DHT22;67767;45.636;11.756;2023-04-03T16:21:24;16.70;38.40
73137;DHT22;67767;45.636;11.756;2023-04-03T16:23:50;16.80;39.20
73137;DHT22;67767;45.636;11.756;2023-04-03T16:26:16;16.80;39.50
73137;DHT22;67767;45.636;11.756;2023-04-03T16:28:43;16.90;39.30
73137;DHT22;67767;45.636;11.756;2023-04-03T16:31:09;16.70;37.80
73137;DHT22;67767;45.636;11.756;2023-04-03T16:33:35;16.50;38.60
73137;DHT22;67767;45.636;11.756;2023-04-03T16:36:04;16.20;38.30
73137;DHT22;67767;45.636;11.756;2023-04-03T16:38:30;16.30;39.50
73137;DHT22;67767;45.636;11.756;2023-04-03T16:40:56;16.10;39.30
73137;DHT22;67767;45.636;11.756;2023-04-03T16:43:25;16.00;40.10
73137;DHT22;67767;45.636;11.756;2023-04-03T16:45:51;15.80;40.80
73137;DHT22;67767;45.636;11.756;2023-04-03T16:48:17;15.80;41.00
73137;DHT22;67767;45.636;11.756;2023-04-03T16:50:46;16.00;40.90
73137;DHT22;67767;45.636;11.756;2023-04-03T16:53:13;15.90;41.30
73137;DHT22;67767;45.636;11.756;2023-04-03T16:55:39;15.80;41.50
73137;DHT22;67767;45.636;11.756;2023-04-03T16:58:05;15.90;41.40
73137;DHT22;67767;45.636;11.756;2023-04-03T17:00:32;15.90;41.60
73137;DHT22;67767;45.636;11.756;2023-04-03T17:02:59;15.80;41.20
73137;DHT22;67767;45.636;11.756;2023-04-03T17:05:25;15.70;40.20
73137;DHT22;67767;45.636;11.756;2023-04-03T17:07:51;15.70;41.00
73137;DHT22;67767;45.636;11.756;2023-04-03T17:10:17;15.70;40.80
73137;DHT22;67767;45.636;11.756;2023-04-03T17:12:42;15.70;40.80
73137;DHT22;67767;45.636;11.756;2023-04-03T17:15:08;15.70;40.70
73137;DHT22;67767;45.636;11.756;2023-04-03T17:17:34;15.70;40.60